| time (UTC) | temp F | wind direction | speed MPH | gust MPH | rain 1hr in | rain 24hr in | rain mn in | humidity % | barometer mb |
| 20260507221524 | 44 | 0.0 | 0.0 | 0.00 | 0.00 | 0.00 | 35 | 1016.9 | |
| 20260507220520 | 44 | 0.0 | 0.0 | 0.00 | 0.00 | 0.00 | 37 | 1016.7 | |
| 20260507215516 | 44 | 0.0 | 0.0 | 0.00 | 0.00 | 0.00 | 37 | 1017.0 | |
| 20260507214525 | 44 | 0.0 | 0.0 | 0.00 | 0.00 | 0.00 | 39 | 1016.8 | |
| 20260507213517 | 44 | 0.0 | 0.0 | 0.00 | 0.00 | 0.00 | 40 | 1016.5 | |
| 20260507212525 | 45 | 0.0 | 0.0 | 0.00 | 0.00 | 0.00 | 43 | 1016.5 | |
| 20260507211543 | 45 | 0.0 | 0.0 | 0.00 | 0.00 | 0.00 | 48 | 1016.5 | |
| 20260507210536 | 45 | 0.0 | 0.0 | 0.00 | 0.00 | 0.00 | 50 | 1016.5 | |
| 20260507205524 | 45 | 0.0 | 0.0 | 0.00 | 0.00 | 0.00 | 55 | 1016.5 | |
| 20260507204520 | 45 | 0.0 | 0.0 | 0.00 | 0.00 | 0.00 | 63 | 1016.5 | |
| 20260507203516 | 46 | 0.0 | 0.0 | 0.00 | 0.00 | 0.00 | 70 | 1016.5 | |
| 20260507202524 | 46 | 0.0 | 0.0 | 0.00 | 0.00 | 0.00 | 72 | 1016.5 | |
| 20260507201519 | 46 | 0.0 | 0.0 | 0.00 | 0.00 | 0.00 | 75 | 1016.5 | |
| 20260507200523 | 46 | 0.0 | 0.0 | 0.00 | 0.00 | 0.00 | 84 | 1016.5 | |
| 20260507195519 | 47 | 0.0 | 0.0 | 0.00 | 0.00 | 0.00 | 90 | 1016.5 | |
| 20260507194520 | 47 | 0.0 | 0.0 | 0.00 | 0.00 | 0.00 | 94 | 1016.5 | |
| 20260507193545 | 48 | 0.0 | 0.0 | 0.00 | 0.00 | 0.00 | 97 | 1016.5 | |
| 20260507192518 | 48 | 0.0 | 0.0 | 0.00 | 0.00 | 0.00 | 97 | 1016.5 | |
| 20260507191516 | 49 | 0.0 | 0.0 | 0.00 | 0.00 | 0.00 | 97 | 1016.2 | |
| 20260507190540 | 50 | 0.0 | 0.0 | 0.00 | 0.00 | 0.00 | 97 | 1016.0 | |
| 20260507185517 | 51 | 0.0 | 0.0 | 0.00 | 0.00 | 0.00 | 97 | 1015.7 | |
| 20260507184525 | 52 | 0.0 | 0.0 | 0.00 | 0.00 | 0.00 | 97 | 1015.5 | |
| 20260507183519 | 53 | 0.0 | 0.0 | 0.00 | 0.00 | 0.00 | 97 | 1015.5 | |
| 20260507182517 | 54 | 0.0 | 0.0 | 0.00 | 0.00 | 0.00 | 97 | 1015.5 | |
| 20260507181522 | 55 | 0.0 | 0.0 | 0.00 | 0.00 | 0.00 | 97 | 1015.5 | |
| 20260507180517 | 56 | 0.0 | 0.0 | 0.00 | 0.00 | 0.00 | 97 | 1015.5 | |
| 20260507175523 | 58 | 0.0 | 0.0 | 0.00 | 0.00 | 0.00 | 97 | 1015.5 | |
| 20260507174520 | 61 | 0.0 | 0.0 | 0.00 | 0.00 | 0.00 | 97 | 1015.5 | |
| 20260507173516 | 61 | 135 | 0.0 | 3.0 | 0.00 | 0.00 | 0.00 | 97 | 1015.5 |
| 20260507172523 | 60 | 135 | 0.0 | 2.0 | 0.00 | 0.00 | 0.00 | 97 | 1015.5 |
| 20260507171522 | 59 | 121 | 0.0 | 2.0 | 0.00 | 0.00 | 0.00 | 97 | 1015.5 |
| 20260507170516 | 58 | 135 | 0.0 | 3.0 | 0.00 | 0.00 | 0.00 | 97 | 1015.5 |
| 20260507165522 | 58 | 0.0 | 0.0 | 0.00 | 0.00 | 0.00 | 97 | 1015.5 | |
| 20260507164521 | 59 | 0.0 | 0.0 | 0.00 | 0.00 | 0.00 | 97 | 1015.5 | |
| 20260507163705 | 60 | 135 | 0.0 | 5.0 | 0.00 | 0.00 | 0.00 | 97 | 1015.5 |
| 20260507162518 | 61 | 139 | 1.0 | 4.0 | 0.00 | 0.00 | 0.00 | 97 | 1015.5 |
| 20260507161517 | 60 | 158 | 0.0 | 3.0 | 0.00 | 0.00 | 0.00 | 97 | 1015.5 |
| 20260507160522 | 61 | 113 | 0.0 | 2.0 | 0.00 | 0.00 | 0.00 | 97 | 1015.5 |
| 20260507155516 | 60 | 0.0 | 0.0 | 0.00 | 0.00 | 0.00 | 97 | 1015.5 | |
| 20260507154521 | 61 | 0.0 | 0.0 | 0.00 | 0.00 | 0.00 | 97 | 1015.5 | |
| 20260507153518 | 62 | 158 | 0.0 | 6.0 | 0.00 | 0.00 | 0.00 | 97 | 1015.5 |
| 20260507152522 | 63 | 166 | 1.0 | 4.0 | 0.00 | 0.00 | 0.00 | 97 | 1015.1 |
| 20260507151539 | 65 | 0.0 | 0.0 | 0.00 | 0.00 | 0.00 | 97 | 1015.5 | |
| 20260507150524 | 64 | 180 | 0.0 | 3.0 | 0.00 | 0.00 | 0.00 | 97 | 1015.4 |
| 20260507145523 | 65 | 113 | 0.0 | 3.0 | 0.00 | 0.00 | 0.00 | 97 | 1015.5 |
| 20260507144519 | 63 | 140 | 1.0 | 5.0 | 0.00 | 0.00 | 0.00 | 97 | 1015.5 |
| 20260507143525 | 64 | 155 | 1.0 | 8.0 | 0.00 | 0.00 | 0.00 | 97 | 1015.5 |
| 20260507142519 | 64 | 147 | 2.0 | 8.0 | 0.00 | 0.00 | 0.00 | 97 | 1015.5 |
| 20260507141521 | 63 | 147 | 1.0 | 5.0 | 0.00 | 0.00 | 0.00 | 97 | 1015.5 |
| 20260507140524 | 64 | 158 | 0.0 | 6.0 | 0.00 | 0.00 | 0.00 | 97 | 1015.5 |
| 20260507135519 | 64 | 160 | 2.0 | 6.0 | 0.00 | 0.00 | 0.00 | 97 | 1015.5 |
| 20260507134519 | 65 | 136 | 1.0 | 4.0 | 0.00 | 0.00 | 0.00 | 97 | 1015.5 |
| 20260507133522 | 65 | 114 | 4.0 | 8.0 | 0.00 | 0.00 | 0.00 | 97 | 1015.5 |
| 20260507132516 | 65 | 143 | 3.0 | 7.0 | 0.00 | 0.00 | 0.00 | 97 | 1015.5 |
| 20260507131516 | 66 | 161 | 4.0 | 13.0 | 0.00 | 0.00 | 0.00 | 97 | 1015.5 |
| 20260507130520 | 66 | 145 | 2.0 | 9.0 | 0.00 | 0.00 | 0.00 | 97 | 1015.6 |
| 20260507125524 | 66 | 125 | 4.0 | 8.0 | 0.00 | 0.00 | 0.00 | 97 | 1015.5 |
| 20260507124522 | 66 | 149 | 2.0 | 6.0 | 0.00 | 0.00 | 0.00 | 97 | 1015.5 |
| 20260507123526 | 66 | 148 | 2.0 | 8.0 | 0.00 | 0.00 | 0.00 | 97 | 1015.5 |
| 20260507122523 | 65 | 118 | 1.0 | 6.0 | 0.00 | 0.00 | 0.00 | 97 | 1015.5 |
| 20260507121522 | 62 | 142 | 1.0 | 4.0 | 0.00 | 0.00 | 0.00 | 97 | 1015.5 |
| 20260507120515 | 63 | 134 | 0.0 | 3.0 | 0.00 | 0.00 | 0.00 | 97 | 1015.5 |
| 20260507115522 | 66 | 141 | 0.0 | 3.0 | 0.00 | 0.00 | 0.00 | 97 | 1015.5 |
| 20260507114519 | 65 | 170 | 1.0 | 4.0 | 0.00 | 0.00 | 0.00 | 97 | 1015.5 |
| 20260507113521 | 63 | 158 | 0.0 | 4.0 | 0.00 | 0.00 | 0.00 | 97 | 1015.5 |
| 20260507112521 | 66 | 158 | 0.0 | 4.0 | 0.00 | 0.00 | 0.00 | 97 | 1015.5 |
| 20260507111536 | 67 | 152 | 3.0 | 8.0 | 0.00 | 0.00 | 0.00 | 97 | 1015.5 |
| 20260507110521 | 67 | 147 | 1.0 | 6.0 | 0.00 | 0.00 | 0.00 | 97 | 1015.5 |
| 20260507105517 | 69 | 150 | 1.0 | 5.0 | 0.00 | 0.00 | 0.00 | 97 | 1015.5 |
| 20260507104517 | 68 | 121 | 1.0 | 5.0 | 0.00 | 0.00 | 0.00 | 97 | 1015.6 |
| 20260507103521 | 66 | 158 | 0.0 | 2.0 | 0.00 | 0.00 | 0.00 | 96 | 1015.7 |
| 20260507102518 | 68 | 148 | 1.0 | 2.0 | 0.00 | 0.00 | 0.00 | 96 | 1015.9 |
| 20260507101523 | 68 | 37 | 0.0 | 4.0 | 0.00 | 0.00 | 0.00 | 96 | 1015.9 |
| 20260507100538 | 68 | 338 | 0.0 | 4.0 | 0.00 | 0.00 | 0.00 | 96 | 1015.9 |
| 20260507095517 | 67 | 135 | 0.0 | 3.0 | 0.00 | 0.00 | 0.00 | 96 | 1015.9 |
| 20260507094523 | 66 | 119 | 1.0 | 4.0 | 0.00 | 0.00 | 0.00 | 95 | 1015.8 |
| 20260507093518 | 67 | 161 | 1.0 | 3.0 | 0.00 | 0.00 | 0.00 | 96 | 1015.5 |
| 20260507092524 | 66 | 135 | 0.0 | 2.0 | 0.00 | 0.00 | 0.00 | 96 | 1015.5 |
| 20260507091522 | 65 | 0.0 | 0.0 | 0.00 | 0.00 | 0.00 | 95 | 1015.5 | |
| 20260507090525 | 66 | 216 | 0.0 | 4.0 | 0.00 | 0.00 | 0.00 | 95 | 1015.5 |
| 20260507085521 | 64 | 135 | 0.0 | 2.0 | 0.00 | 0.00 | 0.00 | 96 | 1015.5 |
| 20260507084519 | 63 | 133 | 1.0 | 6.0 | 0.00 | 0.00 | 0.00 | 96 | 1015.5 |
| 20260507083523 | 62 | 83 | 2.0 | 5.0 | 0.00 | 0.00 | 0.00 | 97 | 1015.5 |
| 20260507082516 | 63 | 67 | 1.0 | 4.0 | 0.00 | 0.00 | 0.00 | 97 | 1015.5 |
| 20260507081517 | 62 | 154 | 0.0 | 4.0 | 0.00 | 0.00 | 0.00 | 97 | 1015.5 |
| 20260507080521 | 61 | 136 | 3.0 | 8.0 | 0.00 | 0.00 | 0.00 | 97 | 1015.4 |
| 20260507075518 | 61 | 143 | 1.0 | 5.0 | 0.00 | 0.00 | 0.00 | 97 | 1015.4 |
| 20260507074517 | 60 | 135 | 1.0 | 4.0 | 0.00 | 0.00 | 0.00 | 97 | 1015.2 |
| 20260507073521 | 60 | 151 | 2.0 | 6.0 | 0.00 | 0.00 | 0.00 | 97 | 1015.2 |
| 20260507072518 | 60 | 124 | 2.0 | 5.0 | 0.00 | 0.00 | 0.00 | 97 | 1015.0 |
| 20260507071522 | 60 | 135 | 2.0 | 4.0 | 0.00 | 0.00 | 0.00 | 97 | 1014.5 |
| 20260507070516 | 60 | 135 | 0.0 | 4.0 | 0.00 | 0.00 | 0.00 | 97 | 1014.5 |
| 20260507065524 | 59 | 0.0 | 0.0 | 0.00 | 0.00 | 0.00 | 97 | 1014.5 | |
| 20260507064518 | 58 | 0.0 | 0.0 | 0.00 | 0.00 | 0.00 | 97 | 1014.5 | |
| 20260507063523 | 57 | 0.0 | 0.0 | 0.00 | 0.00 | 0.00 | 97 | 1014.5 | |
| 20260507062544 | 55 | 0.0 | 0.0 | 0.00 | 0.00 | 0.00 | 97 | 1014.5 | |
| 20260507061519 | 52 | 0.0 | 0.0 | 0.00 | 0.00 | 0.00 | 97 | 1014.4 | |
| 20260507060524 | 50 | 0.0 | 0.0 | 0.00 | 0.00 | 0.00 | 97 | 1014.5 | |
| 20260507055522 | 48 | 0.0 | 0.0 | 0.00 | 0.00 | 0.00 | 97 | 1014.5 | |
| 20260507054536 | 45 | 0.0 | 0.0 | 0.00 | 0.04 | 0.00 | 97 | 1014.5 | |
| 20260507053519 | 43 | 0.0 | 0.0 | 0.00 | 0.04 | 0.00 | 90 | 1014.2 | |
| 20260507052517 | 40 | 0.0 | 0.0 | 0.00 | 0.04 | 0.00 | 70 | 1013.9 | |
| 20260507051516 | 39 | 0.0 | 0.0 | 0.00 | 0.08 | 0.00 | 69 | 1013.6 | |
| 20260507050521 | 39 | 0.0 | 0.0 | 0.00 | 0.08 | 0.00 | 71 | 1013.6 | |
| 20260507045525 | 39 | 0.0 | 0.0 | 0.00 | 0.12 | 0.00 | 67 | 1013.5 | |
| 20260507044521 | 38 | 0.0 | 0.0 | 0.00 | 0.12 | 0.00 | 73 | 1013.5 | |
| 20260507043515 | 38 | 0.0 | 0.0 | 0.00 | 0.12 | 0.00 | 76 | 1013.5 | |
| 20260507042518 | 39 | 0.0 | 0.0 | 0.00 | 0.12 | 0.00 | 79 | 1013.5 | |
| 20260507041519 | 39 | 0.0 | 0.0 | 0.00 | 0.12 | 0.00 | 82 | 1013.5 | |
| 20260507040556 | 39 | 0.0 | 0.0 | 0.00 | 0.12 | 0.00 | 85 | 1013.5 | |
| 20260507035517 | 39 | 0.0 | 0.0 | 0.00 | 0.12 | 0.00 | 88 | 1013.5 | |
| 20260507034521 | 39 | 0.0 | 0.0 | 0.00 | 0.12 | 0.00 | 90 | 1013.5 | |
| 20260507033605 | 40 | 0.0 | 0.0 | 0.00 | 0.12 | 0.00 | 93 | 1013.5 | |
| 20260507032543 | 40 | 0.0 | 0.0 | 0.00 | 0.12 | 0.00 | 95 | 1013.5 | |
| 20260507031518 | 40 | 0.0 | 0.0 | 0.00 | 0.12 | 0.00 | 95 | 1013.5 | |
| 20260507030523 | 40 | 0.0 | 0.0 | 0.00 | 0.12 | 0.00 | 97 | 1013.5 | |
| 20260507025521 | 41 | 0.0 | 0.0 | 0.00 | 0.12 | 0.00 | 97 | 1013.5 | |
| 20260507024516 | 41 | 0.0 | 0.0 | 0.00 | 0.12 | 0.00 | 97 | 1013.5 | |
| 20260507023521 | 41 | 0.0 | 0.0 | 0.00 | 0.12 | 0.00 | 97 | 1013.5 | |
| 20260507022517 | 41 | 0.0 | 0.0 | 0.00 | 0.16 | 0.00 | 97 | 1013.5 | |
| 20260507021524 | 42 | 0.0 | 0.0 | 0.00 | 0.16 | 0.00 | 97 | 1013.5 | |
| 20260507020520 | 42 | 0.0 | 0.0 | 0.00 | 0.16 | 0.00 | 97 | 1013.5 | |
| 20260507015518 | 43 | 0.0 | 0.0 | 0.00 | 0.25 | 0.00 | 97 | 1013.5 | |
| 20260507014520 | 43 | 0.0 | 0.0 | 0.00 | 0.33 | 0.00 | 97 | 1013.5 | |
| 20260507013516 | 44 | 0.0 | 0.0 | 0.00 | 0.37 | 0.00 | 97 | 1013.5 | |
| 20260507012516 | 45 | 0.0 | 0.0 | 0.00 | 0.37 | 0.00 | 97 | 1013.5 | |
| 20260507011559 | 45 | 0.0 | 0.0 | 0.00 | 0.37 | 0.00 | 97 | 1013.5 | |
| 20260507010526 | 46 | 0.0 | 0.0 | 0.00 | 0.37 | 0.00 | 97 | 1013.5 | |
| 20260507005540 | 46 | 0.0 | 0.0 | 0.00 | 0.37 | 0.00 | 97 | 1013.5 | |
| 20260507004518 | 47 | 0.0 | 0.0 | 0.00 | 0.37 | 0.00 | 97 | 1013.5 | |
| 20260507003524 | 47 | 158 | 1.0 | 7.0 | 0.00 | 0.37 | 0.00 | 97 | 1013.5 |
| 20260507002522 | 46 | 155 | 1.0 | 7.0 | 0.00 | 0.37 | 0.00 | 97 | 1013.5 |
| 20260507001516 | 47 | 0.0 | 0.0 | 0.00 | 0.37 | 0.00 | 97 | 1013.5 | |
| 20260507000522 | 48 | 0.0 | 0.0 | 0.00 | 0.37 | 0.00 | 97 | 1013.5 | |
| 20260506235516 | 49 | 0.0 | 0.0 | 0.00 | 0.37 | 0.00 | 97 | 1013.5 | |
| 20260506234536 | 50 | 119 | 2.0 | 6.0 | 0.00 | 0.37 | 0.00 | 97 | 1013.5 |
| 20260506233540 | 50 | 204 | 1.0 | 8.0 | 0.00 | 0.37 | 0.00 | 97 | 1013.5 |
| 20260506232518 | 49 | 194 | 1.0 | 4.0 | 0.00 | 0.37 | 0.00 | 97 | 1013.5 |
| 20260506231523 | 46 | 0.0 | 0.0 | 0.00 | 0.37 | 0.00 | 97 | 1013.5 | |
| 20260506230519 | 45 | 0.0 | 0.0 | 0.00 | 0.37 | 0.00 | 97 | 1013.5 | |
| 20260506225526 | 45 | 0.0 | 0.0 | 0.00 | 0.41 | 0.00 | 97 | 1013.5 | |
| 20260506224524 | 45 | 0.0 | 0.0 | 0.00 | 0.49 | 0.00 | 97 | 1013.5 | |
| 20260506223517 | 45 | 0.0 | 0.0 | 0.00 | 0.54 | 0.00 | 97 | 1013.5 | |
| 20260506222524 | 45 | 0.0 | 0.0 | 0.00 | 0.58 | 0.00 | 97 | 1013.5 |